Time;durP1;ratioP1;P1;durP2;ratioP2;P2;SDS_P1;SDS_P2;PMS_P1;PMS_P2;Temp;Humidity;BMP_temperature;BMP_pressure;BME280_temperature;BME280_humidity;BME280_pressure;Samples;Min_cycle;Max_cycle;Signal;HPM_P1;HPM_P2
2022/03/06 00:00:14;;;;;;;1.90;1.80;;;;;;;5.79;43.80;101656.75;5195809;28;20053;-78
2022/03/06 00:02:48;;;;;;;0.73;0.73;;;;;;;5.75;43.27;101655.84;5175974;28;20419;-78
2022/03/06 00:05:19;;;;;;;0.40;0.40;;;;;;;5.80;43.50;101658.50;5183163;28;20038;-81
2022/03/06 00:07:49;;;;;;;2.10;2.00;;;;;;;5.76;43.64;101656.69;5178563;28;20393;-79
2022/03/06 00:10:23;;;;;;;1.05;1.05;;;;;;;5.60;45.06;101661.78;5182636;28;20071;-78
2022/03/06 00:12:53;;;;;;;1.10;1.00;;;;;;;5.70;44.23;101661.88;5181279;28;20037;-81
2022/03/06 00:15:26;;;;;;;2.30;2.10;;;;;;;5.68;43.90;101665.34;5182562;28;20536;-79
2022/03/06 00:17:56;;;;;;;0.40;0.40;;;;;;;5.56;44.83;101664.34;5185249;28;20029;-78
2022/03/06 00:20:29;;;;;;;1.97;1.87;;;;;;;5.60;44.51;101653.97;5154576;28;20049;-78
2022/03/06 00:22:59;;;;;;;1.17;1.17;;;;;;;5.55;44.93;101657.41;5183121;28;20022;-79
2022/03/06 00:25:33;;;;;;;1.02;1.02;;;;;;;5.48;44.90;101659.94;5167542;28;20770;-78
2022/03/06 00:28:10;;;;;;;1.27;1.00;;;;;;;5.55;44.72;101652.19;5165834;28;20060;-77
2022/03/06 00:30:41;;;;;;;0.68;0.68;;;;;;;5.54;44.78;101653.94;5181667;28;20046;-77
2022/03/06 00:33:12;;;;;;;2.58;2.38;;;;;;;5.50;44.97;101654.75;5178780;28;20034;-78
2022/03/06 00:35:45;;;;;;;0.50;0.50;;;;;;;5.46;45.05;101648.66;5181826;28;20042;-77
2022/03/06 00:38:16;;;;;;;0.73;0.73;;;;;;;5.41;45.17;101652.94;5182490;28;20041;-78
2022/03/06 00:40:47;;;;;;;0.77;0.77;;;;;;;5.41;45.57;101649.50;5200128;28;20050;-77
2022/03/06 00:43:17;;;;;;;3.53;2.67;;;;;;;5.49;44.65;101653.91;5147521;28;20026;-77
2022/03/06 00:45:48;;;;;;;0.80;0.80;;;;;;;5.41;44.70;101654.69;5169600;28;20038;-77
2022/03/06 00:48:21;;;;;;;1.50;1.45;;;;;;;5.42;45.28;101657.31;5180216;28;20038;-81
2022/03/06 00:50:51;;;;;;;2.90;1.23;;;;;;;5.44;45.08;101662.50;5162013;28;20053;-78
2022/03/06 00:53:25;;;;;;;0.50;0.50;;;;;;;5.43;44.85;101671.16;5168410;28;20042;-79
2022/03/06 00:55:56;;;;;;;1.02;1.02;;;;;;;5.36;44.96;101678.06;5168459;28;20060;-78
2022/03/06 00:58:26;;;;;;;0.93;0.93;;;;;;;5.31;45.14;101665.00;5193144;28;20033;-79
2022/03/06 01:00:57;;;;;;;2.50;1.45;;;;;;;5.24;44.80;101670.13;5164258;28;20110;-81
2022/03/06 01:03:29;;;;;;;3.88;2.83;;;;;;;5.10;46.35;101670.88;5168109;28;20025;-79
2022/03/06 01:06:02;;;;;;;1.00;1.00;;;;;;;5.19;45.17;101667.47;5163547;28;20080;-77
2022/03/06 01:08:33;;;;;;;0.50;0.50;;;;;;;4.98;45.90;101662.91;5151240;28;20037;-81
2022/03/06 01:11:04;;;;;;;1.50;1.40;;;;;;;5.09;45.31;101673.44;5182041;28;20046;-77
2022/03/06 01:13:35;;;;;;;3.00;2.80;;;;;;;4.99;45.77;101672.47;5169759;28;20033;-79
2022/03/06 01:16:08;;;;;;;1.27;1.20;;;;;;;4.96;45.98;101668.09;5160543;28;20497;-78
2022/03/06 01:18:42;;;;;;;1.67;0.90;;;;;;;4.91;45.71;101674.09;5158594;28;20029;-80
2022/03/06 01:21:12;;;;;;;2.13;1.60;;;;;;;4.88;45.67;101678.41;5180528;28;20050;-77
2022/03/06 01:23:43;;;;;;;1.02;1.02;;;;;;;4.99;45.77;101681.16;5183224;28;20025;-80
2022/03/06 01:26:13;;;;;;;1.38;1.38;;;;;;;4.93;45.71;101677.59;5150746;28;20030;-77
2022/03/06 01:28:44;;;;;;;2.75;1.92;;;;;;;4.95;45.18;101676.75;5184896;28;20116;-81
2022/03/06 01:31:15;;;;;;;2.67;1.70;;;;;;;4.83;45.87;101677.50;5164855;28;20065;-80
2022/03/06 01:33:45;;;;;;;0.70;0.70;;;;;;;4.92;45.68;101679.31;5148327;28;20026;-79
2022/03/06 01:36:16;;;;;;;1.65;1.55;;;;;;;4.84;45.81;101683.53;5181946;28;20049;-80
2022/03/06 01:38:47;;;;;;;1.98;1.58;;;;;;;4.62;46.23;101680.69;5150893;28;20428;-81
2022/03/06 01:41:17;;;;;;;0.47;0.47;;;;;;;4.75;46.18;101688.66;5162781;28;20057;-77
2022/03/06 01:43:48;;;;;;;0.73;0.73;;;;;;;4.70;45.94;101692.06;5181916;28;20030;-81
2022/03/06 01:46:19;;;;;;;0.80;0.77;;;;;;;4.67;45.53;101691.16;5178019;28;20053;-77
2022/03/06 01:48:49;;;;;;;1.52;1.48;;;;;;;4.63;46.54;101695.44;5167742;28;20022;-79
2022/03/06 01:51:20;;;;;;;0.95;0.95;;;;;;;4.59;46.42;101698.84;5145439;28;20030;-77
2022/03/06 01:53:50;;;;;;;2.42;2.25;;;;;;;4.62;45.87;101704.09;5163961;28;20033;-78
2022/03/06 01:56:21;;;;;;;0.30;0.30;;;;;;;4.52;46.22;101697.00;5192526;28;20076;-79
2022/03/06 01:58:52;;;;;;;0.45;0.45;;;;;;;4.54;46.25;101697.91;5165452;28;20057;-79
2022/03/06 02:01:23;;;;;;;3.55;1.95;;;;;;;4.54;46.45;101700.50;5180579;28;20064;-77
2022/03/06 02:03:56;;;;;;;1.00;1.00;;;;;;;4.50;46.10;101701.34;5145112;28;20057;-79
2022/03/06 02:06:28;;;;;;;1.20;1.20;;;;;;;4.50;45.83;101704.78;5197897;28;20044;-77
2022/03/06 02:08:58;;;;;;;1.42;1.33;;;;;;;4.43;46.27;101702.06;5163048;28;20311;-78
2022/03/06 02:11:32;;;;;;;1.92;1.27;;;;;;;4.40;46.49;101701.19;5181269;28;20072;-77
2022/03/06 02:14:03;;;;;;;0.50;0.50;;;;;;;4.37;46.20;101710.69;5201359;28;20100;-82
2022/03/06 02:16:33;;;;;;;2.72;1.17;;;;;;;4.34;45.59;101708.88;5149933;28;20540;-78
2022/03/06 02:19:04;;;;;;;3.03;2.38;;;;;;;4.31;46.49;101716.66;5181235;28;20034;-78
2022/03/06 02:21:35;;;;;;;0.38;0.38;;;;;;;4.32;46.21;101713.22;5163094;28;20099;-78
2022/03/06 02:24:06;;;;;;;1.58;1.48;;;;;;;4.34;46.22;101714.09;5165286;28;20101;-77
2022/03/06 02:26:38;;;;;;;2.25;1.52;;;;;;;4.33;46.61;101717.56;5164646;28;20041;-80
2022/03/06 02:29:10;;;;;;;0.80;0.80;;;;;;;4.28;46.05;101710.53;5161899;28;20496;-79
2022/03/06 02:31:41;;;;;;;1.10;1.10;;;;;;;4.22;46.88;101708.72;5163942;28;20426;-80
2022/03/06 02:34:11;;;;;;;0.60;0.60;;;;;;;4.21;46.62;101709.56;5177185;28;20038;-80
2022/03/06 02:36:42;;;;;;;1.58;1.48;;;;;;;4.17;45.80;101708.66;5181174;28;20041;-77
2022/03/06 02:39:12;;;;;;;1.15;1.15;;;;;;;4.08;46.74;101700.72;5165347;28;20061;-78
2022/03/06 02:41:43;;;;;;;3.13;2.90;;;;;;;3.96;47.72;101701.38;5181849;28;20076;-78
2022/03/06 02:44:13;;;;;;;3.83;1.10;;;;;;;4.06;46.95;101700.69;5181363;28;20033;-78
2022/03/06 02:46:48;;;;;;;1.05;1.05;;;;;;;4.04;47.28;101697.19;5169609;28;20114;-80
2022/03/06 02:49:19;;;;;;;9.20;2.92;;;;;;;4.07;46.86;101699.84;5168610;28;20443;-78
2022/03/06 02:51:50;;;;;;;1.33;1.30;;;;;;;4.09;47.03;101703.31;5185803;28;20037;-78
2022/03/06 02:54:21;;;;;;;2.45;2.30;;;;;;;4.09;46.33;101703.31;5180968;28;20592;-78
2022/03/06 02:56:53;;;;;;;1.10;1.10;;;;;;;4.04;47.37;101694.59;5196015;28;20028;-79
2022/03/06 02:59:24;;;;;;;1.80;1.70;;;;;;;4.03;46.82;101694.59;5179712;28;20552;-81
2022/03/06 03:01:55;;;;;;;0.93;0.85;;;;;;;3.99;46.62;101703.16;5163267;28;20117;-80
2022/03/06 03:04:33;;;;;;;0.40;0.40;;;;;;;3.93;46.59;101701.34;5165878;28;20388;-77
2022/03/06 03:07:26;;;;;;;0.82;0.82;;;;;;;3.97;46.49;101697.94;5168224;28;20049;-79
2022/03/06 03:09:59;;;;;;;1.13;1.13;;;;;;;3.83;46.52;101700.31;5170827;28;20045;-78
2022/03/06 03:12:36;;;;;;;1.27;1.23;;;;;;;3.90;46.67;101690.91;5164742;28;20053;-78
2022/03/06 03:15:10;;;;;;;0.50;0.50;;;;;;;3.83;47.01;101699.47;5160585;28;20046;-78
2022/03/06 03:17:49;;;;;;;0.80;0.80;;;;;;;3.86;47.60;101700.38;5152603;28;20037;-79
2022/03/06 03:20:20;;;;;;;0.95;0.95;;;;;;;3.82;46.57;101708.94;5174932;28;20045;-78
2022/03/06 03:22:54;;;;;;;1.23;1.23;;;;;;;3.84;47.31;101709.00;5180493;28;20037;-78
2022/03/06 03:25:28;;;;;;;1.42;1.40;;;;;;;3.77;46.82;101708.00;5180246;28;20060;-78
2022/03/06 03:28:01;;;;;;;0.57;0.57;;;;;;;3.72;47.16;101707.06;5169217;28;20037;-77
2022/03/06 03:30:32;;;;;;;0.80;0.80;;;;;;;3.60;48.33;101703.41;5164795;28;20045;-78
2022/03/06 03:33:03;;;;;;;1.75;1.65;;;;;;;3.60;47.98;101707.69;5191805;28;20037;-84
2022/03/06 03:35:42;;;;;;;0.50;0.50;;;;;;;3.60;47.45;101707.69;5197672;28;20041;-80
2022/03/06 03:38:15;;;;;;;1.60;1.58;;;;;;;3.61;47.25;101709.47;5165717;28;20041;-79
2022/03/06 03:40:53;;;;;;;0.60;0.60;;;;;;;3.62;47.78;101711.22;5142105;28;20046;-78
2022/03/06 03:43:24;;;;;;;3.13;2.92;;;;;;;3.63;47.33;101715.56;5178876;28;20033;-79
2022/03/06 03:45:57;;;;;;;1.02;1.02;;;;;;;3.61;47.24;101709.47;5172618;28;20052;-78
2022/03/06 03:48:29;;;;;;;1.42;1.33;;;;;;;3.56;47.82;101717.16;5193991;28;20041;-78
2022/03/06 03:51:00;;;;;;;0.30;0.30;;;;;;;3.52;47.44;101720.56;5182504;28;20103;-78
2022/03/06 03:53:30;;;;;;;1.08;1.08;;;;;;;3.57;47.67;101718.91;5162144;28;20029;-77
2022/03/06 03:56:01;;;;;;;0.85;0.82;;;;;;;3.51;48.24;101728.31;5180127;28;20054;-79
2022/03/06 03:58:33;;;;;;;0.93;0.93;;;;;;;3.49;47.62;101722.22;5149944;28;20080;-81
2022/03/06 04:01:04;;;;;;;3.17;1.85;;;;;;;3.39;48.16;101721.19;5160342;28;20736;-79
2022/03/06 04:03:34;;;;;;;1.15;1.15;;;;;;;3.41;48.06;101720.38;5148701;28;20026;-78
2022/03/06 04:06:05;;;;;;;2.22;2.13;;;;;;;3.45;48.01;101721.31;5140204;28;20038;-79
2022/03/06 04:08:35;;;;;;;1.42;1.30;;;;;;;3.42;47.90;101722.13;5188397;28;20025;-82
2022/03/06 04:11:06;;;;;;;3.67;1.77;;;;;;;3.34;48.78;101726.28;5193774;28;20057;-78
2022/03/06 04:13:37;;;;;;;1.13;1.02;;;;;;;3.29;48.55;101725.31;5166675;28;20372;-78
2022/03/06 04:16:08;;;;;;;2.75;2.55;;;;;;;3.41;48.50;101732.44;5174481;28;20061;-79
2022/03/06 04:18:41;;;;;;;1.38;1.33;;;;;;;3.41;48.27;101730.75;5165031;28;20037;-78
2022/03/06 04:21:11;;;;;;;0.52;0.52;;;;;;;3.38;48.22;101732.41;5179811;28;20034;-81
2022/03/06 04:23:42;;;;;;;1.65;1.55;;;;;;;3.34;48.74;101731.47;5162558;28;20022;-79
2022/03/06 04:26:13;;;;;;;0.73;0.73;;;;;;;3.34;48.64;101734.06;5177102;28;20461;-78
2022/03/06 04:28:43;;;;;;;1.35;1.20;;;;;;;3.32;48.33;101738.34;5172805;28;20041;-79
2022/03/06 04:31:14;;;;;;;1.50;1.40;;;;;;;3.21;49.23;101739.84;5161020;28;20045;-82
2022/03/06 04:33:45;;;;;;;1.25;1.25;;;;;;;3.24;48.57;101737.31;5180868;28;20057;-81
2022/03/06 04:36:15;;;;;;;0.30;0.30;;;;;;;3.26;48.89;101740.84;5177305;28;20042;-80
2022/03/06 04:38:45;;;;;;;1.27;1.23;;;;;;;3.28;48.49;101737.41;5177194;28;20080;-78
2022/03/06 04:41:16;;;;;;;0.80;0.80;;;;;;;3.22;49.36;101741.59;5160915;28;20042;-78
2022/03/06 04:43:47;;;;;;;1.00;1.00;;;;;;;3.25;48.95;101741.69;5181612;28;20052;-81
2022/03/06 04:46:17;;;;;;;1.08;1.08;;;;;;;3.25;50.02;101744.28;5187160;28;20065;-78
2022/03/06 04:48:51;;;;;;;0.90;0.90;;;;;;;3.30;49.32;101748.72;5159180;28;20026;-78
2022/03/06 04:51:21;;;;;;;1.80;1.70;;;;;;;3.28;49.35;101757.28;5193132;28;20124;-78
2022/03/06 04:53:51;;;;;;;1.95;1.35;;;;;;;3.25;49.26;101750.31;5179513;28;20030;-78
2022/03/06 04:56:24;;;;;;;1.25;1.20;;;;;;;3.27;49.13;101756.41;5164615;28;20450;-79
2022/03/06 04:58:55;;;;;;;1.75;1.45;;;;;;;3.25;49.25;101758.09;5181010;28;20397;-81
2022/03/06 05:01:25;;;;;;;1.15;1.15;;;;;;;3.21;49.09;101761.50;5184078;28;20069;-79
2022/03/06 05:03:56;;;;;;;0.82;0.82;;;;;;;3.15;50.11;101758.75;5184216;28;20021;-77
2022/03/06 05:06:29;;;;;;;;;;;;;;;3.18;48.98;101764.00;5181528;28;20049;-77
2022/03/06 05:09:00;;;;;;;1.17;1.17;;;;;;;3.22;49.76;101762.34;5162344;28;19928;-77
2022/03/06 05:11:33;;;;;;;0.88;0.88;;;;;;;3.18;49.96;101768.34;5148084;28;20041;-81
2022/03/06 05:14:07;;;;;;;0.60;0.60;;;;;;;3.13;49.49;101766.50;5164286;28;20628;-78
2022/03/06 05:16:37;;;;;;;3.22;2.40;;;;;;;3.13;49.66;101763.06;5164072;28;20087;-81
2022/03/06 05:19:09;;;;;;;1.17;1.17;;;;;;;3.13;49.27;101765.66;5184168;28;20473;-77
2022/03/06 05:21:40;;;;;;;0.73;0.73;;;;;;;3.11;49.82;101757.81;5163842;28;20038;-80
2022/03/06 05:24:10;;;;;;;2.03;1.50;;;;;;;3.13;49.60;101758.72;5184220;28;20041;-78
2022/03/06 05:26:41;;;;;;;0.68;0.68;;;;;;;3.10;49.71;101752.59;5198978;28;20030;-78
2022/03/06 05:29:11;;;;;;;0.65;0.65;;;;;;;3.11;49.36;101760.41;5181572;28;20065;-81
2022/03/06 05:31:44;;;;;;;2.78;2.58;;;;;;;3.11;49.68;101762.16;5165283;28;20033;-79
2022/03/06 05:34:15;;;;;;;1.58;1.48;;;;;;;3.09;49.48;101767.31;5181475;28;20116;-78
2022/03/06 05:36:45;;;;;;;1.80;1.73;;;;;;;3.02;49.27;101768.00;5187172;28;20440;-78
2022/03/06 05:39:16;;;;;;;1.13;1.13;;;;;;;2.95;49.61;101774.78;5166093;28;20567;-81
2022/03/06 05:41:47;;;;;;;4.13;3.20;;;;;;;3.01;49.69;101774.06;5161848;28;20104;-79
2022/03/06 05:44:21;;;;;;;1.95;1.85;;;;;;;3.02;49.96;101770.59;5163980;28;20034;-80
2022/03/06 05:46:53;;;;;;;1.80;1.70;;;;;;;2.98;49.59;101774.84;5162338;28;20034;-78
2022/03/06 05:49:23;;;;;;;4.10;2.65;;;;;;;2.99;49.46;101775.72;5178146;28;20034;-78
2022/03/06 05:51:54;;;;;;;4.72;2.28;;;;;;;2.94;49.82;101773.03;5179019;28;20052;-77
2022/03/06 05:54:24;;;;;;;2.08;1.95;;;;;;;2.94;49.51;101787.69;5197872;28;20073;-82
2022/03/06 05:56:57;;;;;;;0.30;0.30;;;;;;;2.99;49.99;101791.28;5181172;28;20131;-81
2022/03/06 05:59:28;;;;;;;1.45;1.40;;;;;;;2.97;49.83;101793.84;5178503;28;20057;-77
2022/03/06 06:02:02;;;;;;;3.35;1.38;;;;;;;2.90;49.91;101801.44;5146400;28;20135;-80
2022/03/06 06:04:33;;;;;;;0.50;0.50;;;;;;;2.92;50.05;101797.19;5152815;28;20051;-80
2022/03/06 06:07:06;;;;;;;4.97;1.48;;;;;;;2.84;51.18;101807.38;5188776;28;20038;-79
2022/03/06 06:09:38;;;;;;;0.50;0.50;;;;;;;2.97;50.47;101805.94;5159389;28;20076;-78
2022/03/06 06:12:09;;;;;;;2.35;2.17;;;;;;;2.93;49.65;101817.94;5175676;28;20061;-78
2022/03/06 06:14:39;;;;;;;1.63;1.52;;;;;;;2.91;49.75;101819.63;5179496;28;20442;-77
2022/03/06 06:17:10;;;;;;;1.67;1.58;;;;;;;2.84;50.67;101817.75;5176329;28;20034;-78
2022/03/06 06:19:40;;;;;;;7.43;4.15;;;;;;;2.92;50.39;101820.50;5162937;28;20038;-77
2022/03/06 06:22:11;;;;;;;0.82;0.82;;;;;;;2.82;50.14;101820.31;5167168;28;20068;-81
2022/03/06 06:24:42;;;;;;;0.57;0.57;;;;;;;2.90;50.49;101829.97;5208079;28;20085;-80
2022/03/06 06:27:12;;;;;;;2.13;2.03;;;;;;;2.80;51.07;101831.50;5185268;28;20068;-80
2022/03/06 06:29:43;;;;;;;1.50;1.40;;;;;;;2.82;50.39;101829.78;5180373;28;20052;-77
2022/03/06 06:32:14;;;;;;;2.10;2.00;;;;;;;2.88;50.59;101836.81;5180024;28;20516;-77
2022/03/06 06:34:45;;;;;;;0.73;0.73;;;;;;;2.80;50.66;101832.34;5176751;28;20037;-77
2022/03/06 06:37:15;;;;;;;1.33;1.33;;;;;;;2.87;50.73;101837.66;5186327;28;20022;-81
2022/03/06 06:39:49;;;;;;;1.60;1.52;;;;;;;2.86;50.30;101826.44;5147991;28;20532;-79
2022/03/06 06:42:19;;;;;;;1.30;1.20;;;;;;;2.86;50.73;101833.31;5160469;28;20120;-79
2022/03/06 06:44:49;;;;;;;0.75;0.75;;;;;;;2.75;51.03;101844.34;5162482;28;20806;-79
2022/03/06 06:47:20;;;;;;;1.58;1.50;;;;;;;2.89;51.25;101854.13;5165058;28;20165;-78
2022/03/06 06:49:53;;;;;;;1.50;1.35;;;;;;;2.60;52.16;101857.78;5161290;28;20049;-78
2022/03/06 06:52:24;;;;;;;0.55;0.55;;;;;;;2.29;53.02;101869.09;5163333;28;20084;-80
2022/03/06 06:54:54;;;;;;;1.75;1.40;;;;;;;2.49;51.47;101859.25;5162463;28;20080;-79
2022/03/06 06:57:29;;;;;;;1.15;1.15;;;;;;;2.18;54.14;101874.91;5190372;28;20021;-82
2022/03/06 06:59:59;;;;;;;1.65;1.55;;;;;;;2.29;53.04;101877.78;5179336;28;20057;-79
2022/03/06 07:02:30;;;;;;;1.35;1.35;;;;;;;2.44;52.33;101882.44;5163499;28;20037;-78
2022/03/06 07:05:03;;;;;;;1.38;1.38;;;;;;;2.46;52.63;101878.19;5177517;28;20088;-81
2022/03/06 07:07:34;;;;;;;0.88;0.88;;;;;;;2.52;52.98;101882.66;5146106;28;20036;-80
2022/03/06 07:10:09;;;;;;;;;;;;;;;2.49;52.65;101885.16;5172891;28;20045;-82
2022/03/06 07:12:48;;;;;;;1.08;1.08;;;;;;;2.44;53.11;101887.63;5159584;28;19917;-79
2022/03/06 07:15:19;;;;;;;1.48;1.38;;;;;;;2.29;53.14;101892.41;5175311;28;20042;-79
2022/03/06 07:17:53;;;;;;;;;;;;;;;2.43;52.42;101888.47;5176238;28;20057;-76
2022/03/06 07:20:24;;;;;;;2.63;2.42;;;;;;;2.37;52.66;101888.31;5178366;28;20010;-79
2022/03/06 07:22:55;;;;;;;1.27;1.27;;;;;;;2.35;53.32;101895.19;5178566;28;20033;-79
2022/03/06 07:25:26;;;;;;;2.13;2.03;;;;;;;2.42;53.00;101897.09;5143625;28;20717;-80
2022/03/06 07:28:00;;;;;;;1.95;1.88;;;;;;;2.40;52.83;101893.56;5179440;28;20597;-78
2022/03/06 07:30:30;;;;;;;0.93;0.88;;;;;;;2.46;53.00;101909.28;5165338;28;20536;-78
2022/03/06 07:33:01;;;;;;;0.68;0.68;;;;;;;2.33;54.59;101902.91;5173248;28;20117;-78
2022/03/06 07:35:32;;;;;;;1.38;1.30;;;;;;;2.48;54.59;101912.78;5164014;28;20041;-78
2022/03/06 07:38:05;;;;;;;4.18;3.42;;;;;;;2.52;53.37;101909.41;5164678;28;20042;-77
2022/03/06 07:40:36;;;;;;;;;;;;;;;2.51;53.75;101906.78;5178043;28;20046;-78
2022/03/06 07:43:07;;;;;;;0.60;0.60;;;;;;;2.51;53.17;101902.50;5157468;28;19924;-76
2022/03/06 07:45:38;;;;;;;3.10;2.90;;;;;;;2.60;52.76;101906.16;5193872;28;20041;-76
2022/03/06 07:48:08;;;;;;;6.93;1.70;;;;;;;2.58;53.21;101913.03;5158762;28;20389;-79
2022/03/06 07:50:42;;;;;;;0.63;0.63;;;;;;;2.58;52.98;101915.63;5161265;28;20049;-78
2022/03/06 07:53:12;;;;;;;1.75;1.70;;;;;;;2.37;55.72;101919.38;5176975;28;20034;-77
2022/03/06 07:55:43;;;;;;;0.85;0.85;;;;;;;2.52;54.41;101919.78;5162996;28;20057;-81
2022/03/06 07:58:17;;;;;;;1.50;1.40;;;;;;;2.50;53.70;101925.75;5190817;28;20045;-77
2022/03/06 08:00:48;;;;;;;0.90;0.90;;;;;;;2.54;53.85;101922.44;5178652;28;20037;-78
2022/03/06 08:03:18;;;;;;;5.93;4.60;;;;;;;2.61;54.00;101924.34;5178284;28;20038;-76
2022/03/06 08:05:48;;;;;;;1.75;1.65;;;;;;;2.30;56.29;101922.66;5159349;28;20201;-78
2022/03/06 08:08:19;;;;;;;1.95;1.85;;;;;;;2.35;54.93;101921.09;5160999;28;20029;-77
2022/03/06 08:10:49;;;;;;;3.45;2.30;;;;;;;2.40;56.06;101927.25;5179325;28;20037;-77
2022/03/06 08:13:20;;;;;;;0.65;0.65;;;;;;;2.44;55.13;101916.13;5165716;28;20521;-75
2022/03/06 08:15:50;;;;;;;1.83;1.73;;;;;;;2.49;54.94;101927.50;5182155;28;20148;-77
2022/03/06 08:18:21;;;;;;;1.75;1.65;;;;;;;2.37;55.04;101924.56;5181136;28;20053;-77
2022/03/06 08:20:51;;;;;;;2.08;1.98;;;;;;;2.32;56.43;101923.59;5182031;28;20049;-78
2022/03/06 08:23:22;;;;;;;1.23;1.23;;;;;;;2.47;55.69;101929.16;5182859;28;20025;-76
2022/03/06 08:25:52;;;;;;;0.93;0.93;;;;;;;2.58;54.62;101933.75;5180386;28;20034;-75
2022/03/06 08:28:23;;;;;;;1.67;1.58;;;;;;;2.67;55.19;101926.22;5165494;28;20040;-77
2022/03/06 08:30:53;;;;;;;2.70;2.08;;;;;;;2.66;55.38;101932.22;5169804;28;20072;-74
2022/03/06 08:33:24;;;;;;;1.50;1.40;;;;;;;2.79;55.18;101930.81;5191538;28;20668;-77
2022/03/06 08:35:55;;;;;;;4.95;3.67;;;;;;;2.76;55.14;101934.22;5167565;28;20053;-74
2022/03/06 08:38:25;;;;;;;1.45;1.35;;;;;;;2.77;54.78;101930.75;5183689;28;20501;-77
2022/03/06 08:40:56;;;;;;;1.23;1.17;;;;;;;2.73;55.04;101936.72;5201770;28;20034;-79
2022/03/06 08:43:26;;;;;;;2.30;1.90;;;;;;;2.77;54.93;101932.50;5190091;28;20025;-77
2022/03/06 08:45:59;;;;;;;1.65;1.60;;;;;;;2.60;57.29;101939.84;5198861;28;20221;-74
2022/03/06 08:48:31;;;;;;;2.17;2.03;;;;;;;2.72;56.96;101947.94;5179009;28;20034;-76
2022/03/06 08:51:03;;;;;;;3.97;3.05;;;;;;;2.52;58.56;101945.69;5148663;28;20038;-77
2022/03/06 08:53:34;;;;;;;0.80;0.80;;;;;;;2.64;58.16;101944.25;5170108;28;20108;-77
2022/03/06 08:56:04;;;;;;;2.15;2.00;;;;;;;2.62;58.33;101945.94;5185239;28;20056;-76
2022/03/06 08:58:38;;;;;;;2.70;2.50;;;;;;;2.73;57.01;101951.41;5168124;28;20036;-78
2022/03/06 09:01:08;;;;;;;0.77;0.77;;;;;;;2.78;57.34;101948.06;5187314;28;20467;-76
2022/03/06 09:03:42;;;;;;;1.40;1.40;;;;;;;2.77;57.67;101948.91;5170078;28;20033;-77
2022/03/06 09:06:13;;;;;;;1.38;1.35;;;;;;;2.81;58.25;101958.53;5187636;28;20052;-74
2022/03/06 09:08:44;;;;;;;1.77;1.67;;;;;;;2.87;56.81;101949.13;5165861;28;20477;-78
2022/03/06 09:11:15;;;;;;;2.25;1.92;;;;;;;2.97;56.67;101954.59;5184444;28;20689;-76
2022/03/06 09:13:45;;;;;;;1.55;1.48;;;;;;;2.97;56.99;101943.34;5187003;28;20107;-76
2022/03/06 09:16:15;;;;;;;0.88;0.88;;;;;;;3.01;57.10;101949.47;5187279;28;20037;-79
2022/03/06 09:18:47;;;;;;;1.35;1.33;;;;;;;3.00;57.27;101953.81;5169063;28;20147;-77
2022/03/06 09:21:18;;;;;;;3.28;3.03;;;;;;;2.83;59.25;101955.97;5151756;28;20061;-77
2022/03/06 09:23:51;;;;;;;0.38;0.38;;;;;;;2.98;57.82;101945.09;5183303;28;20505;-75
2022/03/06 09:26:25;;;;;;;1.00;0.98;;;;;;;3.02;57.70;101952.09;5181424;28;20125;-74
2022/03/06 09:28:55;;;;;;;1.85;1.75;;;;;;;3.20;56.96;101946.50;5182939;28;20056;-75
2022/03/06 09:31:26;;;;;;;0.88;0.85;;;;;;;3.30;57.68;101948.47;5163518;28;20061;-76
2022/03/06 09:33:56;;;;;;;1.95;1.85;;;;;;;3.13;58.32;101953.25;5165605;28;20620;-75
2022/03/06 09:36:27;;;;;;;1.15;1.15;;;;;;;3.23;57.61;101961.25;5180840;28;20116;-75
2022/03/06 09:38:57;;;;;;;1.67;1.58;;;;;;;3.11;59.28;101962.69;5180246;28;20051;-76
2022/03/06 09:41:28;;;;;;;1.83;1.73;;;;;;;3.12;57.75;101964.44;5159717;28;20042;-73
2022/03/06 09:43:59;;;;;;;1.33;1.23;;;;;;;3.37;57.51;101964.16;5173811;28;20036;-75
2022/03/06 09:46:29;;;;;;;2.83;2.63;;;;;;;3.23;58.53;101962.09;5179633;28;20136;-76
2022/03/06 09:49:04;;;;;;;2.28;2.17;;;;;;;3.34;57.42;101964.97;5163166;28;20038;-75
2022/03/06 09:51:39;;;;;;;1.27;1.27;;;;;;;3.40;58.11;101964.22;5163253;28;20045;-76
2022/03/06 09:54:12;;;;;;;1.13;1.10;;;;;;;3.63;56.37;101964.72;5165546;28;20666;-76
2022/03/06 09:56:44;;;;;;;0.47;0.47;;;;;;;3.50;57.19;101963.56;5181199;28;20081;-74
2022/03/06 09:59:15;;;;;;;5.82;1.85;;;;;;;3.59;56.07;101960.31;5190406;28;20052;-76
2022/03/06 10:01:48;;;;;;;1.20;1.17;;;;;;;3.67;55.95;101957.88;5182550;28;20762;-75
2022/03/06 10:04:26;;;;;;;1.48;1.38;;;;;;;3.66;56.35;101957.00;5163613;28;20030;-75
2022/03/06 10:07:03;;;;;;;3.55;3.35;;;;;;;3.84;55.47;101959.09;5182159;28;20030;-78
2022/03/06 10:09:54;;;;;;;2.08;0.85;;;;;;;3.69;56.24;101959.66;5176593;28;20086;-76
2022/03/06 10:12:28;;;;;;;5.30;2.35;;;;;;;3.92;55.70;101956.69;5164489;28;20030;-77
2022/03/06 10:15:05;;;;;;;1.35;1.27;;;;;;;3.80;56.13;101964.22;5170959;28;20077;-79
2022/03/06 10:17:36;;;;;;;9.43;1.85;;;;;;;3.87;56.59;101963.47;5153292;28;20642;-79
2022/03/06 10:20:12;;;;;;;1.70;1.60;;;;;;;3.88;57.06;101963.53;5165316;28;20128;-76
2022/03/06 10:22:45;;;;;;;1.92;1.83;;;;;;;3.93;56.69;101961.00;5166484;28;20034;-79
2022/03/06 10:25:20;;;;;;;2.97;1.92;;;;;;;3.97;56.62;101974.97;5162277;28;20057;-75
2022/03/06 10:27:54;;;;;;;4.15;2.17;;;;;;;3.94;57.67;101974.03;5152505;28;20030;-75
2022/03/06 10:30:24;;;;;;;;;;;;;;;4.18;55.73;101961.50;5182371;28;20125;-77
2022/03/06 10:32:57;;;;;;;0.55;0.55;;;;;;;4.09;56.76;101963.06;5187962;28;19981;-75
2022/03/06 10:35:41;;;;;;;1.90;1.80;;;;;;;4.18;55.79;101962.38;5186363;28;20050;-77
2022/03/06 10:38:18;;;;;;;;;;;;;;;4.19;56.30;101963.25;5162620;28;20038;-78
2022/03/06 10:40:50;;;;;;;0.40;0.40;;;;;;;4.35;55.62;101964.44;5164461;28;19940;-76
2022/03/06 10:43:29;;;;;;;0.77;0.77;;;;;;;4.51;55.43;101965.56;5179947;28;20045;-77
2022/03/06 10:46:17;;;;;;;3.17;2.88;;;;;;;4.49;54.74;101960.34;5158672;28;20042;-78
2022/03/06 10:49:08;;;;;;;2.97;1.75;;;;;;;4.48;54.82;101952.53;5144100;28;20030;-77
2022/03/06 10:51:51;;;;;;;0.90;0.90;;;;;;;4.53;55.35;101950.88;5179381;28;20524;-77
2022/03/06 10:54:22;;;;;;;3.20;3.00;;;;;;;4.61;55.02;101954.50;5160173;28;20688;-76
2022/03/06 10:56:54;;;;;;;3.80;1.63;;;;;;;4.59;54.65;101948.38;5147665;28;20033;-78
2022/03/06 10:59:26;;;;;;;2.08;1.00;;;;;;;4.77;54.15;101954.75;5166336;28;20049;-78
2022/03/06 11:01:56;;;;;;;2.17;2.08;;;;;;;4.88;53.96;101956.69;5160221;28;20041;-77
2022/03/06 11:04:29;;;;;;;0.77;0.77;;;;;;;4.85;54.18;101953.16;5164436;28;20030;-78
2022/03/06 11:07:00;;;;;;;0.57;0.57;;;;;;;4.96;53.39;101943.81;5186895;28;20076;-78
2022/03/06 11:09:31;;;;;;;0.70;0.70;;;;;;;5.00;53.64;101956.00;5161879;28;20506;-75
2022/03/06 11:12:03;;;;;;;0.75;0.75;;;;;;;4.81;53.51;101948.78;5181325;28;20033;-78
2022/03/06 11:14:34;;;;;;;1.48;1.45;;;;;;;5.02;53.13;101950.84;5168164;28;20384;-78
2022/03/06 11:17:05;;;;;;;0.77;0.77;;;;;;;4.94;53.05;101945.50;5177670;28;20041;-78
2022/03/06 11:19:38;;;;;;;1.55;1.50;;;;;;;5.00;53.21;101948.19;5175420;28;20037;-78
2022/03/06 11:22:24;;;;;;;1.25;1.25;;;;;;;4.96;52.88;101942.94;5162582;28;20033;-79
2022/03/06 11:25:05;;;;;;;0.60;0.60;;;;;;;5.00;52.78;101940.38;5143147;28;20125;-78
2022/03/06 11:27:51;;;;;;;8.13;2.88;;;;;;;5.07;51.02;101940.50;5181208;28;20105;-77
2022/03/06 11:30:22;;;;;;;0.93;0.93;;;;;;;5.12;52.04;101934.53;5163545;28;20103;-78
2022/03/06 11:33:07;;;;;;;0.65;0.65;;;;;;;5.14;52.02;101926.75;5170929;28;20105;-77
2022/03/06 11:35:41;;;;;;;0.82;0.82;;;;;;;5.13;51.71;101931.03;5182106;28;20466;-77
2022/03/06 11:38:13;;;;;;;3.13;2.92;;;;;;;5.32;52.37;101931.31;5182522;28;20033;-77
2022/03/06 11:40:50;;;;;;;1.55;1.45;;;;;;;5.29;51.26;101932.16;5166424;28;20045;-76
2022/03/06 11:43:38;;;;;;;1.50;1.42;;;;;;;5.39;51.68;101919.28;5162717;28;20034;-78
2022/03/06 11:46:16;;;;;;;1.55;1.27;;;;;;;5.46;51.81;101927.19;5178250;28;20042;-79
2022/03/06 11:48:47;;;;;;;2.65;2.33;;;;;;;5.48;51.43;101925.47;5158673;28;20022;-76
2022/03/06 11:51:23;;;;;;;1.60;1.52;;;;;;;5.65;52.05;101919.63;5171848;28;20578;-78
2022/03/06 11:53:54;;;;;;;2.60;2.47;;;;;;;5.65;51.28;101917.91;5177684;28;20233;-77
2022/03/06 11:56:38;;;;;;;1.38;1.27;;;;;;;5.81;50.97;101915.47;5151865;28;20105;-78